Big Branch, Kentucky
Current Conditions -  °F | °C
As of 12:35 PM on Wednesday 26 Nov 2014 (Local Time) from KPBX Reporting Station
Broken Clouds Broken Clouds  
Wind Chill: 39°   Ceiling: 3700
Heat Index: 42°   Visibility: 10mi
Dew Point: 32°   Wind: 5mph
Humidity: 66%   Direction: 290°WNW
Pressure: 30.01"   Gusts: NA
Location:  37.3089°N, 82.3418°W
Report Text: KPBX 261735Z AUTO 29004KT 10SM BKN037 06/00 A3001 RMK AO2 T00571002
Loading
Personal Weather Stations






























Interactive Weather Map New forecast layout! Learn more

10-Day Weather Forecast

Advertisements
Track Severe Weather on mobile